sensor_id;sensor_type;location;lat;lon;timestamp;temperature;humidity
3001;DHT22;1510;51.072;6.678;2022-09-09T00:00:13;14.80;99.90
3001;DHT22;1510;51.072;6.678;2022-09-09T00:02:43;14.80;99.90
3001;DHT22;1510;51.072;6.678;2022-09-09T00:05:18;14.70;99.90
3001;DHT22;1510;51.072;6.678;2022-09-09T00:07:48;14.70;99.90
3001;DHT22;1510;51.072;6.678;2022-09-09T00:10:20;14.70;99.90
3001;DHT22;1510;51.072;6.678;2022-09-09T00:12:54;14.70;99.90
3001;DHT22;1510;51.072;6.678;2022-09-09T00:15:28;14.80;99.90
3001;DHT22;1510;51.072;6.678;2022-09-09T00:18:07;14.90;99.90
3001;DHT22;1510;51.072;6.678;2022-09-09T00:20:40;14.90;99.90
3001;DHT22;1510;51.072;6.678;2022-09-09T00:23:14;14.90;99.90
3001;DHT22;1510;51.072;6.678;2022-09-09T00:25:50;14.90;99.90
3001;DHT22;1510;51.072;6.678;2022-09-09T00:28:20;14.80;99.90
3001;DHT22;1510;51.072;6.678;2022-09-09T00:30:47;14.90;99.90
3001;DHT22;1510;51.072;6.678;2022-09-09T00:33:16;14.90;99.90
3001;DHT22;1510;51.072;6.678;2022-09-09T00:35:48;14.90;99.90
3001;DHT22;1510;51.072;6.678;2022-09-09T00:38:19;15.00;99.90
3001;DHT22;1510;51.072;6.678;2022-09-09T00:40:51;14.90;99.90
3001;DHT22;1510;51.072;6.678;2022-09-09T00:43:26;14.90;99.90
3001;DHT22;1510;51.072;6.678;2022-09-09T00:46:15;14.90;99.90
3001;DHT22;1510;51.072;6.678;2022-09-09T00:48:52;14.80;99.90
3001;DHT22;1510;51.072;6.678;2022-09-09T00:51:30;14.90;99.90
3001;DHT22;1510;51.072;6.678;2022-09-09T00:54:14;14.80;99.90
3001;DHT22;1510;51.072;6.678;2022-09-09T00:56:50;14.70;99.90
3001;DHT22;1510;51.072;6.678;2022-09-09T00:59:26;14.70;99.90
3001;DHT22;1510;51.072;6.678;2022-09-09T01:01:55;14.70;99.90
3001;DHT22;1510;51.072;6.678;2022-09-09T01:04:27;14.60;99.90
3001;DHT22;1510;51.072;6.678;2022-09-09T01:07:03;14.60;99.90
3001;DHT22;1510;51.072;6.678;2022-09-09T01:09:41;14.70;99.90
3001;DHT22;1510;51.072;6.678;2022-09-09T01:12:14;14.40;99.90
3001;DHT22;1510;51.072;6.678;2022-09-09T01:14:45;14.30;99.90
3001;DHT22;1510;51.072;6.678;2022-09-09T01:17:17;14.30;99.90
3001;DHT22;1510;51.072;6.678;2022-09-09T01:19:54;14.20;99.90
3001;DHT22;1510;51.072;6.678;2022-09-09T01:22:32;14.20;99.90
3001;DHT22;1510;51.072;6.678;2022-09-09T01:28:06;14.10;99.90
3001;DHT22;1510;51.072;6.678;2022-09-09T01:30:37;14.10;99.90
3001;DHT22;1510;51.072;6.678;2022-09-09T01:33:04;14.10;99.90
3001;DHT22;1510;51.072;6.678;2022-09-09T01:35:42;14.40;99.90
3001;DHT22;1510;51.072;6.678;2022-09-09T01:38:12;14.40;99.90
3001;DHT22;1510;51.072;6.678;2022-09-09T01:40:39;14.50;99.90
3001;DHT22;1510;51.072;6.678;2022-09-09T01:43:07;14.60;99.90
3001;DHT22;1510;51.072;6.678;2022-09-09T01:45:35;14.40;99.90
3001;DHT22;1510;51.072;6.678;2022-09-09T01:48:02;14.60;99.90
3001;DHT22;1510;51.072;6.678;2022-09-09T01:50:29;14.50;99.90
3001;DHT22;1510;51.072;6.678;2022-09-09T01:52:57;14.60;99.90
3001;DHT22;1510;51.072;6.678;2022-09-09T01:55:29;14.60;99.90
3001;DHT22;1510;51.072;6.678;2022-09-09T01:58:06;14.50;99.90
3001;DHT22;1510;51.072;6.678;2022-09-09T02:00:41;14.60;99.90
3001;DHT22;1510;51.072;6.678;2022-09-09T02:03:17;14.70;99.90
3001;DHT22;1510;51.072;6.678;2022-09-09T02:05:54;14.70;99.90
3001;DHT22;1510;51.072;6.678;2022-09-09T02:08:26;14.70;99.90
3001;DHT22;1510;51.072;6.678;2022-09-09T02:10:58;14.90;99.90
3001;DHT22;1510;51.072;6.678;2022-09-09T02:13:29;14.70;99.90
3001;DHT22;1510;51.072;6.678;2022-09-09T02:16:04;14.90;99.90
3001;DHT22;1510;51.072;6.678;2022-09-09T02:18:37;15.00;99.90
3001;DHT22;1510;51.072;6.678;2022-09-09T02:21:05;14.80;99.90
3001;DHT22;1510;51.072;6.678;2022-09-09T02:23:34;14.90;99.90
3001;DHT22;1510;51.072;6.678;2022-09-09T02:26:02;14.80;99.90
3001;DHT22;1510;51.072;6.678;2022-09-09T02:28:31;14.80;99.90
3001;DHT22;1510;51.072;6.678;2022-09-09T02:31:01;14.70;99.90
3001;DHT22;1510;51.072;6.678;2022-09-09T02:33:30;14.60;99.90
3001;DHT22;1510;51.072;6.678;2022-09-09T02:36:01;14.70;99.90
3001;DHT22;1510;51.072;6.678;2022-09-09T02:38:36;14.60;99.90
3001;DHT22;1510;51.072;6.678;2022-09-09T02:41:05;14.50;99.90
3001;DHT22;1510;51.072;6.678;2022-09-09T02:43:33;14.60;99.90
3001;DHT22;1510;51.072;6.678;2022-09-09T02:46:06;14.40;99.90
3001;DHT22;1510;51.072;6.678;2022-09-09T02:48:40;14.40;99.90
3001;DHT22;1510;51.072;6.678;2022-09-09T02:51:16;14.60;99.90
3001;DHT22;1510;51.072;6.678;2022-09-09T02:53:49;14.60;99.90
3001;DHT22;1510;51.072;6.678;2022-09-09T02:56:21;14.50;99.90
3001;DHT22;1510;51.072;6.678;2022-09-09T02:58:48;14.70;99.90
3001;DHT22;1510;51.072;6.678;2022-09-09T03:01:18;14.70;99.90
3001;DHT22;1510;51.072;6.678;2022-09-09T03:03:45;14.60;99.90
3001;DHT22;1510;51.072;6.678;2022-09-09T03:06:12;14.50;99.90
3001;DHT22;1510;51.072;6.678;2022-09-09T03:08:39;14.40;99.90
3001;DHT22;1510;51.072;6.678;2022-09-09T03:11:07;14.50;99.90
3001;DHT22;1510;51.072;6.678;2022-09-09T03:13:35;14.40;99.90
3001;DHT22;1510;51.072;6.678;2022-09-09T03:16:03;14.50;99.90
3001;DHT22;1510;51.072;6.678;2022-09-09T03:18:32;14.40;99.90
3001;DHT22;1510;51.072;6.678;2022-09-09T03:21:00;14.50;99.90
3001;DHT22;1510;51.072;6.678;2022-09-09T03:23:26;14.40;99.90
3001;DHT22;1510;51.072;6.678;2022-09-09T03:25:53;14.50;99.90
3001;DHT22;1510;51.072;6.678;2022-09-09T03:28:22;14.60;99.90
3001;DHT22;1510;51.072;6.678;2022-09-09T03:30:58;14.70;99.90
3001;DHT22;1510;51.072;6.678;2022-09-09T03:33:25;14.70;99.90
3001;DHT22;1510;51.072;6.678;2022-09-09T03:35:53;14.80;99.90
3001;DHT22;1510;51.072;6.678;2022-09-09T03:38:22;14.80;99.90
3001;DHT22;1510;51.072;6.678;2022-09-09T03:40:50;14.80;99.90
3001;DHT22;1510;51.072;6.678;2022-09-09T03:43:18;14.70;99.90
3001;DHT22;1510;51.072;6.678;2022-09-09T03:45:46;14.60;99.90
3001;DHT22;1510;51.072;6.678;2022-09-09T03:48:13;14.60;99.90
3001;DHT22;1510;51.072;6.678;2022-09-09T03:50:44;14.60;99.90
3001;DHT22;1510;51.072;6.678;2022-09-09T03:53:12;14.60;99.90
3001;DHT22;1510;51.072;6.678;2022-09-09T03:55:43;14.50;99.90
3001;DHT22;1510;51.072;6.678;2022-09-09T03:58:11;14.50;99.90
3001;DHT22;1510;51.072;6.678;2022-09-09T04:00:38;14.60;99.90
3001;DHT22;1510;51.072;6.678;2022-09-09T04:03:08;14.60;99.90
3001;DHT22;1510;51.072;6.678;2022-09-09T04:05:35;14.50;99.90
3001;DHT22;1510;51.072;6.678;2022-09-09T04:08:05;14.60;99.90
3001;DHT22;1510;51.072;6.678;2022-09-09T04:10:33;14.70;99.90
3001;DHT22;1510;51.072;6.678;2022-09-09T04:13:01;14.70;99.90
3001;DHT22;1510;51.072;6.678;2022-09-09T04:15:28;14.80;99.90
3001;DHT22;1510;51.072;6.678;2022-09-09T04:17:55;14.80;99.90
3001;DHT22;1510;51.072;6.678;2022-09-09T04:20:22;14.80;99.90
3001;DHT22;1510;51.072;6.678;2022-09-09T04:22:49;14.90;99.90
3001;DHT22;1510;51.072;6.678;2022-09-09T04:25:15;14.90;99.90
3001;DHT22;1510;51.072;6.678;2022-09-09T04:27:43;14.90;99.90
3001;DHT22;1510;51.072;6.678;2022-09-09T04:30:11;15.00;99.90
3001;DHT22;1510;51.072;6.678;2022-09-09T04:32:38;15.00;99.90
3001;DHT22;1510;51.072;6.678;2022-09-09T04:35:05;14.90;99.90
3001;DHT22;1510;51.072;6.678;2022-09-09T04:37:32;15.10;99.90
3001;DHT22;1510;51.072;6.678;2022-09-09T04:39:59;15.10;99.90
3001;DHT22;1510;51.072;6.678;2022-09-09T04:42:27;15.20;99.90
3001;DHT22;1510;51.072;6.678;2022-09-09T04:44:55;15.20;99.90
3001;DHT22;1510;51.072;6.678;2022-09-09T04:47:22;15.10;99.90
3001;DHT22;1510;51.072;6.678;2022-09-09T04:49:49;15.10;99.90
3001;DHT22;1510;51.072;6.678;2022-09-09T04:52:15;15.10;99.90
3001;DHT22;1510;51.072;6.678;2022-09-09T04:54:42;15.10;99.90
3001;DHT22;1510;51.072;6.678;2022-09-09T04:57:10;15.00;99.90
3001;DHT22;1510;51.072;6.678;2022-09-09T04:59:37;15.00;99.90
3001;DHT22;1510;51.072;6.678;2022-09-09T05:02:06;15.20;99.90
3001;DHT22;1510;51.072;6.678;2022-09-09T05:04:47;15.10;99.90
3001;DHT22;1510;51.072;6.678;2022-09-09T05:07:20;15.40;99.90
3001;DHT22;1510;51.072;6.678;2022-09-09T05:09:47;15.40;99.90
3001;DHT22;1510;51.072;6.678;2022-09-09T05:12:14;15.50;99.90
3001;DHT22;1510;51.072;6.678;2022-09-09T05:14:42;15.50;99.90
3001;DHT22;1510;51.072;6.678;2022-09-09T05:17:10;15.50;99.90
3001;DHT22;1510;51.072;6.678;2022-09-09T05:19:38;15.60;99.90
3001;DHT22;1510;51.072;6.678;2022-09-09T05:22:05;15.50;99.90
3001;DHT22;1510;51.072;6.678;2022-09-09T05:24:32;15.50;99.90
3001;DHT22;1510;51.072;6.678;2022-09-09T05:26:59;15.50;99.90
3001;DHT22;1510;51.072;6.678;2022-09-09T05:29:27;15.60;99.90
3001;DHT22;1510;51.072;6.678;2022-09-09T05:31:54;15.60;99.90
3001;DHT22;1510;51.072;6.678;2022-09-09T05:34:22;15.60;99.90
3001;DHT22;1510;51.072;6.678;2022-09-09T05:37:31;15.50;99.90
3001;DHT22;1510;51.072;6.678;2022-09-09T05:40:10;15.60;99.90
3001;DHT22;1510;51.072;6.678;2022-09-09T05:42:37;15.60;99.90
3001;DHT22;1510;51.072;6.678;2022-09-09T05:45:05;15.70;99.90
3001;DHT22;1510;51.072;6.678;2022-09-09T05:47:34;15.90;99.90
3001;DHT22;1510;51.072;6.678;2022-09-09T05:50:02;16.00;99.90
3001;DHT22;1510;51.072;6.678;2022-09-09T05:52:29;16.10;99.90
3001;DHT22;1510;51.072;6.678;2022-09-09T05:57:48;16.20;99.90
3001;DHT22;1510;51.072;6.678;2022-09-09T06:00:19;16.40;99.90
3001;DHT22;1510;51.072;6.678;2022-09-09T06:02:51;16.40;99.90
3001;DHT22;1510;51.072;6.678;2022-09-09T06:05:20;16.60;99.90
3001;DHT22;1510;51.072;6.678;2022-09-09T06:07:52;16.50;99.90
3001;DHT22;1510;51.072;6.678;2022-09-09T06:10:19;16.50;99.90
3001;DHT22;1510;51.072;6.678;2022-09-09T06:12:46;16.60;99.70
3001;DHT22;1510;51.072;6.678;2022-09-09T06:15:15;16.70;99.50
3001;DHT22;1510;51.072;6.678;2022-09-09T06:17:42;16.70;99.10
3001;DHT22;1510;51.072;6.678;2022-09-09T06:20:10;16.70;99.60
3001;DHT22;1510;51.072;6.678;2022-09-09T06:22:40;16.70;98.90
3001;DHT22;1510;51.072;6.678;2022-09-09T06:25:08;16.70;98.60
3001;DHT22;1510;51.072;6.678;2022-09-09T06:27:38;16.70;97.80
3001;DHT22;1510;51.072;6.678;2022-09-09T06:30:09;16.80;98.00
3001;DHT22;1510;51.072;6.678;2022-09-09T06:32:39;16.70;97.50
3001;DHT22;1510;51.072;6.678;2022-09-09T06:35:06;16.80;98.10
3001;DHT22;1510;51.072;6.678;2022-09-09T06:37:44;16.80;96.80
3001;DHT22;1510;51.072;6.678;2022-09-09T06:40:15;16.90;96.90
3001;DHT22;1510;51.072;6.678;2022-09-09T06:42:42;17.20;96.10
3001;DHT22;1510;51.072;6.678;2022-09-09T06:45:11;17.40;95.30
3001;DHT22;1510;51.072;6.678;2022-09-09T06:47:38;17.60;94.90
3001;DHT22;1510;51.072;6.678;2022-09-09T06:50:06;17.70;94.70
3001;DHT22;1510;51.072;6.678;2022-09-09T06:52:33;17.90;93.70
3001;DHT22;1510;51.072;6.678;2022-09-09T06:55:00;17.90;94.20
3001;DHT22;1510;51.072;6.678;2022-09-09T06:57:28;17.90;93.90
3001;DHT22;1510;51.072;6.678;2022-09-09T06:59:54;18.00;92.60
3001;DHT22;1510;51.072;6.678;2022-09-09T07:02:21;17.80;93.00
3001;DHT22;1510;51.072;6.678;2022-09-09T07:04:48;17.80;92.10
3001;DHT22;1510;51.072;6.678;2022-09-09T07:07:17;17.70;91.60
3001;DHT22;1510;51.072;6.678;2022-09-09T07:09:44;17.80;91.50
3001;DHT22;1510;51.072;6.678;2022-09-09T07:12:12;17.80;91.20
3001;DHT22;1510;51.072;6.678;2022-09-09T07:14:45;18.00;90.70
3001;DHT22;1510;51.072;6.678;2022-09-09T07:17:16;17.90;90.80
3001;DHT22;1510;51.072;6.678;2022-09-09T07:19:43;18.10;91.40
3001;DHT22;1510;51.072;6.678;2022-09-09T07:22:09;18.30;85.90
3001;DHT22;1510;51.072;6.678;2022-09-09T07:24:36;18.60;87.00
3001;DHT22;1510;51.072;6.678;2022-09-09T07:27:03;18.70;85.80
3001;DHT22;1510;51.072;6.678;2022-09-09T07:29:30;18.80;86.70
3001;DHT22;1510;51.072;6.678;2022-09-09T07:32:01;18.90;83.00
3001;DHT22;1510;51.072;6.678;2022-09-09T07:34:29;18.90;84.00
3001;DHT22;1510;51.072;6.678;2022-09-09T07:36:56;18.90;79.30
3001;DHT22;1510;51.072;6.678;2022-09-09T07:39:23;18.90;79.00
3001;DHT22;1510;51.072;6.678;2022-09-09T07:41:50;18.80;77.30
3001;DHT22;1510;51.072;6.678;2022-09-09T07:44:19;19.00;78.60
3001;DHT22;1510;51.072;6.678;2022-09-09T07:46:47;19.10;78.00
3001;DHT22;1510;51.072;6.678;2022-09-09T07:49:15;19.30;75.00
3001;DHT22;1510;51.072;6.678;2022-09-09T07:51:45;19.50;77.60
3001;DHT22;1510;51.072;6.678;2022-09-09T07:54:14;19.70;73.50
3001;DHT22;1510;51.072;6.678;2022-09-09T07:56:42;19.70;73.50
3001;DHT22;1510;51.072;6.678;2022-09-09T07:59:09;19.60;73.80
3001;DHT22;1510;51.072;6.678;2022-09-09T08:01:38;19.50;71.80
3001;DHT22;1510;51.072;6.678;2022-09-09T08:04:07;20.00;72.60
3001;DHT22;1510;51.072;6.678;2022-09-09T08:06:38;20.20;70.30
3001;DHT22;1510;51.072;6.678;2022-09-09T08:09:06;20.40;68.50
3001;DHT22;1510;51.072;6.678;2022-09-09T08:11:34;20.50;68.40
3001;DHT22;1510;51.072;6.678;2022-09-09T08:14:02;20.30;68.40
3001;DHT22;1510;51.072;6.678;2022-09-09T08:16:32;20.40;68.20
3001;DHT22;1510;51.072;6.678;2022-09-09T08:19:01;20.70;67.10
3001;DHT22;1510;51.072;6.678;2022-09-09T08:21:29;20.70;62.90
3001;DHT22;1510;51.072;6.678;2022-09-09T08:23:59;20.70;62.50
3001;DHT22;1510;51.072;6.678;2022-09-09T08:26:28;20.70;62.50
3001;DHT22;1510;51.072;6.678;2022-09-09T08:28:56;21.00;60.80
3001;DHT22;1510;51.072;6.678;2022-09-09T08:31:24;21.10;60.50
3001;DHT22;1510;51.072;6.678;2022-09-09T08:33:54;21.10;62.80
3001;DHT22;1510;51.072;6.678;2022-09-09T08:36:23;21.10;59.40
3001;DHT22;1510;51.072;6.678;2022-09-09T08:38:52;21.00;60.30
3001;DHT22;1510;51.072;6.678;2022-09-09T08:41:42;20.90;59.10
3001;DHT22;1510;51.072;6.678;2022-09-09T08:44:18;21.00;58.00
3001;DHT22;1510;51.072;6.678;2022-09-09T08:46:54;20.60;56.40
3001;DHT22;1510;51.072;6.678;2022-09-09T08:49:37;20.80;58.40
3001;DHT22;1510;51.072;6.678;2022-09-09T08:52:10;21.00;58.70
3001;DHT22;1510;51.072;6.678;2022-09-09T08:54:41;20.90;58.60
3001;DHT22;1510;51.072;6.678;2022-09-09T08:57:13;20.80;59.00
3001;DHT22;1510;51.072;6.678;2022-09-09T08:59:40;20.50;55.40
3001;DHT22;1510;51.072;6.678;2022-09-09T09:02:15;20.20;57.70
3001;DHT22;1510;51.072;6.678;2022-09-09T09:04:56;20.10;59.20
3001;DHT22;1510;51.072;6.678;2022-09-09T09:07:34;20.00;55.40
3001;DHT22;1510;51.072;6.678;2022-09-09T09:10:12;20.20;53.40
3001;DHT22;1510;51.072;6.678;2022-09-09T09:12:44;20.40;53.60
3001;DHT22;1510;51.072;6.678;2022-09-09T09:15:18;20.60;53.80
3001;DHT22;1510;51.072;6.678;2022-09-09T09:17:46;20.70;52.80
3001;DHT22;1510;51.072;6.678;2022-09-09T09:20:15;20.90;54.30
3001;DHT22;1510;51.072;6.678;2022-09-09T09:22:48;20.70;52.40
3001;DHT22;1510;51.072;6.678;2022-09-09T09:25:18;21.20;54.30
3001;DHT22;1510;51.072;6.678;2022-09-09T09:27:52;21.80;49.90
3001;DHT22;1510;51.072;6.678;2022-09-09T09:30:34;22.30;46.50
3001;DHT22;1510;51.072;6.678;2022-09-09T09:33:05;23.20;44.60
3001;DHT22;1510;51.072;6.678;2022-09-09T09:35:35;23.50;41.10
3001;DHT22;1510;51.072;6.678;2022-09-09T09:38:05;23.70;40.40
3001;DHT22;1510;51.072;6.678;2022-09-09T09:40:37;24.30;38.50
3001;DHT22;1510;51.072;6.678;2022-09-09T09:43:19;24.60;38.00
3001;DHT22;1510;51.072;6.678;2022-09-09T09:45:46;24.70;36.90
3001;DHT22;1510;51.072;6.678;2022-09-09T09:48:14;25.00;33.70
3001;DHT22;1510;51.072;6.678;2022-09-09T09:50:48;24.90;32.60
3001;DHT22;1510;51.072;6.678;2022-09-09T09:53:21;25.40;29.20
3001;DHT22;1510;51.072;6.678;2022-09-09T09:55:54;25.10;30.60
3001;DHT22;1510;51.072;6.678;2022-09-09T09:58:23;24.70;30.40
3001;DHT22;1510;51.072;6.678;2022-09-09T10:00:52;24.30;31.00
3001;DHT22;1510;51.072;6.678;2022-09-09T10:03:25;23.40;33.60
3001;DHT22;1510;51.072;6.678;2022-09-09T10:05:53;23.20;35.20
3001;DHT22;1510;51.072;6.678;2022-09-09T10:08:22;22.80;37.90
3001;DHT22;1510;51.072;6.678;2022-09-09T10:11:02;23.60;37.60
3001;DHT22;1510;51.072;6.678;2022-09-09T10:13:39;24.60;30.30
3001;DHT22;1510;51.072;6.678;2022-09-09T10:16:22;24.20;30.80
3001;DHT22;1510;51.072;6.678;2022-09-09T10:18:58;24.20;30.90
3001;DHT22;1510;51.072;6.678;2022-09-09T10:21:41;24.00;30.60
3001;DHT22;1510;51.072;6.678;2022-09-09T10:24:29;23.60;30.20
3001;DHT22;1510;51.072;6.678;2022-09-09T10:27:09;22.90;31.80
3001;DHT22;1510;51.072;6.678;2022-09-09T10:29:57;22.80;33.60
3001;DHT22;1510;51.072;6.678;2022-09-09T10:32:37;22.90;35.50
3001;DHT22;1510;51.072;6.678;2022-09-09T10:35:10;22.90;34.40
3001;DHT22;1510;51.072;6.678;2022-09-09T10:37:48;22.80;37.90
3001;DHT22;1510;51.072;6.678;2022-09-09T10:40:28;23.00;38.10
3001;DHT22;1510;51.072;6.678;2022-09-09T10:43:04;23.00;36.50
3001;DHT22;1510;51.072;6.678;2022-09-09T10:45:41;22.50;37.60
3001;DHT22;1510;51.072;6.678;2022-09-09T10:48:27;22.40;39.40
3001;DHT22;1510;51.072;6.678;2022-09-09T10:51:05;22.00;40.00
3001;DHT22;1510;51.072;6.678;2022-09-09T10:53:45;21.80;41.60
3001;DHT22;1510;51.072;6.678;2022-09-09T10:56:18;21.80;40.30
3001;DHT22;1510;51.072;6.678;2022-09-09T10:58:50;21.90;44.20
3001;DHT22;1510;51.072;6.678;2022-09-09T11:01:23;21.70;42.80
3001;DHT22;1510;51.072;6.678;2022-09-09T11:03:55;21.40;43.90
3001;DHT22;1510;51.072;6.678;2022-09-09T11:06:28;21.40;44.00
3001;DHT22;1510;51.072;6.678;2022-09-09T11:08:58;21.40;44.90
3001;DHT22;1510;51.072;6.678;2022-09-09T11:11:29;21.10;43.90
3001;DHT22;1510;51.072;6.678;2022-09-09T11:14:03;20.90;44.20
3001;DHT22;1510;51.072;6.678;2022-09-09T11:16:36;20.90;48.00
3001;DHT22;1510;51.072;6.678;2022-09-09T11:19:13;20.80;46.60
3001;DHT22;1510;51.072;6.678;2022-09-09T11:21:45;21.10;47.20
3001;DHT22;1510;51.072;6.678;2022-09-09T11:24:16;21.70;41.60
3001;DHT22;1510;51.072;6.678;2022-09-09T11:26:47;22.00;41.70
3001;DHT22;1510;51.072;6.678;2022-09-09T11:29:37;21.80;39.40
3001;DHT22;1510;51.072;6.678;2022-09-09T11:32:24;22.00;40.40
3001;DHT22;1510;51.072;6.678;2022-09-09T11:34:59;21.80;42.30
3001;DHT22;1510;51.072;6.678;2022-09-09T11:37:46;21.60;41.30
3001;DHT22;1510;51.072;6.678;2022-09-09T11:40:19;21.50;42.40
3001;DHT22;1510;51.072;6.678;2022-09-09T11:42:48;21.30;41.00
3001;DHT22;1510;51.072;6.678;2022-09-09T11:45:22;21.20;42.50
3001;DHT22;1510;51.072;6.678;2022-09-09T11:47:56;21.10;41.90
3001;DHT22;1510;51.072;6.678;2022-09-09T11:50:35;20.90;44.50
3001;DHT22;1510;51.072;6.678;2022-09-09T11:53:20;20.80;45.70
3001;DHT22;1510;51.072;6.678;2022-09-09T11:55:48;20.80;47.00
3001;DHT22;1510;51.072;6.678;2022-09-09T11:58:26;21.10;52.00
3001;DHT22;1510;51.072;6.678;2022-09-09T12:00:54;21.00;48.10
3001;DHT22;1510;51.072;6.678;2022-09-09T12:03:35;21.30;48.10
3001;DHT22;1510;51.072;6.678;2022-09-09T12:06:14;22.10;45.60
3001;DHT22;1510;51.072;6.678;2022-09-09T12:08:44;22.80;42.10
3001;DHT22;1510;51.072;6.678;2022-09-09T12:11:11;22.90;41.90
3001;DHT22;1510;51.072;6.678;2022-09-09T12:13:38;23.30;39.10
3001;DHT22;1510;51.072;6.678;2022-09-09T12:16:28;23.60;38.70
3001;DHT22;1510;51.072;6.678;2022-09-09T12:19:06;24.40;39.40
3001;DHT22;1510;51.072;6.678;2022-09-09T12:21:38;24.50;35.00
3001;DHT22;1510;51.072;6.678;2022-09-09T12:24:08;24.40;35.90
3001;DHT22;1510;51.072;6.678;2022-09-09T12:26:37;24.80;34.90
3001;DHT22;1510;51.072;6.678;2022-09-09T12:29:14;25.50;31.00
3001;DHT22;1510;51.072;6.678;2022-09-09T12:31:46;25.00;30.70
3001;DHT22;1510;51.072;6.678;2022-09-09T12:34:17;24.10;30.30
3001;DHT22;1510;51.072;6.678;2022-09-09T12:36:55;23.60;35.00
3001;DHT22;1510;51.072;6.678;2022-09-09T12:39:29;23.20;36.30
3001;DHT22;1510;51.072;6.678;2022-09-09T12:41:59;20.80;99.90
3001;DHT22;1510;51.072;6.678;2022-09-09T12:44:29;20.20;91.80
3001;DHT22;1510;51.072;6.678;2022-09-09T12:46:57;20.80;97.00
3001;DHT22;1510;51.072;6.678;2022-09-09T12:49:32;22.10;88.00
3001;DHT22;1510;51.072;6.678;2022-09-09T12:52:03;22.80;74.50
3001;DHT22;1510;51.072;6.678;2022-09-09T12:54:31;23.90;65.40
3001;DHT22;1510;51.072;6.678;2022-09-09T12:56:58;23.80;58.30
3001;DHT22;1510;51.072;6.678;2022-09-09T12:59:27;23.60;56.50
3001;DHT22;1510;51.072;6.678;2022-09-09T13:02:00;24.00;59.90
3001;DHT22;1510;51.072;6.678;2022-09-09T13:04:27;24.40;55.10
3001;DHT22;1510;51.072;6.678;2022-09-09T13:07:05;23.40;50.10
3001;DHT22;1510;51.072;6.678;2022-09-09T13:09:32;22.50;52.50
3001;DHT22;1510;51.072;6.678;2022-09-09T13:11:59;21.80;53.40
3001;DHT22;1510;51.072;6.678;2022-09-09T13:14:29;21.80;59.10
3001;DHT22;1510;51.072;6.678;2022-09-09T13:16:59;21.90;62.70
3001;DHT22;1510;51.072;6.678;2022-09-09T13:19:26;22.00;58.90
3001;DHT22;1510;51.072;6.678;2022-09-09T13:21:58;21.90;55.00
3001;DHT22;1510;51.072;6.678;2022-09-09T13:24:28;22.40;55.50
3001;DHT22;1510;51.072;6.678;2022-09-09T13:26:57;22.50;53.60
3001;DHT22;1510;51.072;6.678;2022-09-09T13:29:28;23.10;53.60
3001;DHT22;1510;51.072;6.678;2022-09-09T13:32:03;23.60;47.10
3001;DHT22;1510;51.072;6.678;2022-09-09T13:34:33;23.30;46.50
3001;DHT22;1510;51.072;6.678;2022-09-09T13:37:04;23.00;47.20
3001;DHT22;1510;51.072;6.678;2022-09-09T13:39:32;23.10;47.90
3001;DHT22;1510;51.072;6.678;2022-09-09T13:42:00;22.20;44.80
3001;DHT22;1510;51.072;6.678;2022-09-09T13:44:30;23.40;47.50
3001;DHT22;1510;51.072;6.678;2022-09-09T13:47:02;23.30;43.70
3001;DHT22;1510;51.072;6.678;2022-09-09T13:49:30;23.10;45.00
3001;DHT22;1510;51.072;6.678;2022-09-09T13:52:15;23.00;45.30
3001;DHT22;1510;51.072;6.678;2022-09-09T13:54:47;23.30;42.90
3001;DHT22;1510;51.072;6.678;2022-09-09T13:57:16;25.10;38.80
3001;DHT22;1510;51.072;6.678;2022-09-09T13:59:43;26.60;31.80
3001;DHT22;1510;51.072;6.678;2022-09-09T14:02:10;26.90;26.40
3001;DHT22;1510;51.072;6.678;2022-09-09T14:04:37;26.90;26.40
3001;DHT22;1510;51.072;6.678;2022-09-09T14:07:09;26.80;24.20
3001;DHT22;1510;51.072;6.678;2022-09-09T14:09:39;27.30;22.10
3001;DHT22;1510;51.072;6.678;2022-09-09T14:12:08;27.00;22.00
3001;DHT22;1510;51.072;6.678;2022-09-09T14:14:35;26.50;24.10
3001;DHT22;1510;51.072;6.678;2022-09-09T14:17:01;26.30;25.20
3001;DHT22;1510;51.072;6.678;2022-09-09T14:19:28;25.80;26.40
3001;DHT22;1510;51.072;6.678;2022-09-09T14:21:56;25.30;28.30
3001;DHT22;1510;51.072;6.678;2022-09-09T14:24:23;23.80;29.70
3001;DHT22;1510;51.072;6.678;2022-09-09T14:26:51;23.00;34.90
3001;DHT22;1510;51.072;6.678;2022-09-09T14:29:18;22.40;37.50
3001;DHT22;1510;51.072;6.678;2022-09-09T14:31:45;20.10;99.90
3001;DHT22;1510;51.072;6.678;2022-09-09T14:34:12;18.40;99.90
3001;DHT22;1510;51.072;6.678;2022-09-09T14:36:39;17.70;99.90
3001;DHT22;1510;51.072;6.678;2022-09-09T14:39:07;17.60;99.90
3001;DHT22;1510;51.072;6.678;2022-09-09T14:41:34;17.70;99.90
3001;DHT22;1510;51.072;6.678;2022-09-09T14:44:02;17.90;99.90
3001;DHT22;1510;51.072;6.678;2022-09-09T14:46:29;18.10;99.90
3001;DHT22;1510;51.072;6.678;2022-09-09T14:48:56;17.50;99.40
3001;DHT22;1510;51.072;6.678;2022-09-09T14:51:24;17.20;99.40
3001;DHT22;1510;51.072;6.678;2022-09-09T14:53:53;16.90;99.90
3001;DHT22;1510;51.072;6.678;2022-09-09T14:56:22;16.90;99.90
3001;DHT22;1510;51.072;6.678;2022-09-09T14:58:50;17.40;99.90
3001;DHT22;1510;51.072;6.678;2022-09-09T15:01:20;18.10;99.90
3001;DHT22;1510;51.072;6.678;2022-09-09T15:03:50;18.90;94.60
3001;DHT22;1510;51.072;6.678;2022-09-09T15:06:17;19.70;90.50
3001;DHT22;1510;51.072;6.678;2022-09-09T15:08:45;20.20;81.60
3001;DHT22;1510;51.072;6.678;2022-09-09T15:11:14;20.60;78.70
3001;DHT22;1510;51.072;6.678;2022-09-09T15:13:42;20.80;78.90
3001;DHT22;1510;51.072;6.678;2022-09-09T15:16:10;20.90;79.00
3001;DHT22;1510;51.072;6.678;2022-09-09T15:18:39;20.70;76.90
3001;DHT22;1510;51.072;6.678;2022-09-09T15:21:08;20.60;78.70
3001;DHT22;1510;51.072;6.678;2022-09-09T15:23:36;20.10;80.10
3001;DHT22;1510;51.072;6.678;2022-09-09T15:26:03;19.80;82.50
3001;DHT22;1510;51.072;6.678;2022-09-09T15:28:32;19.40;82.40
3001;DHT22;1510;51.072;6.678;2022-09-09T15:31:05;18.90;92.50
3001;DHT22;1510;51.072;6.678;2022-09-09T15:33:33;18.30;99.00
3001;DHT22;1510;51.072;6.678;2022-09-09T15:36:12;17.90;99.90
3001;DHT22;1510;51.072;6.678;2022-09-09T15:38:40;17.70;99.90
3001;DHT22;1510;51.072;6.678;2022-09-09T15:41:07;17.80;99.90
3001;DHT22;1510;51.072;6.678;2022-09-09T15:43:33;18.20;99.90
3001;DHT22;1510;51.072;6.678;2022-09-09T15:46:23;18.80;99.90
3001;DHT22;1510;51.072;6.678;2022-09-09T15:48:51;19.40;99.90
3001;DHT22;1510;51.072;6.678;2022-09-09T15:51:20;20.00;99.90
3001;DHT22;1510;51.072;6.678;2022-09-09T15:53:47;20.50;99.90
3001;DHT22;1510;51.072;6.678;2022-09-09T15:56:14;20.80;90.30
3001;DHT22;1510;51.072;6.678;2022-09-09T15:58:41;20.40;84.40
3001;DHT22;1510;51.072;6.678;2022-09-09T16:01:10;20.10;86.20
3001;DHT22;1510;51.072;6.678;2022-09-09T16:03:38;19.60;90.00
3001;DHT22;1510;51.072;6.678;2022-09-09T16:06:06;19.30;91.80
3001;DHT22;1510;51.072;6.678;2022-09-09T16:08:35;18.90;91.90
3001;DHT22;1510;51.072;6.678;2022-09-09T16:11:06;18.60;92.80
3001;DHT22;1510;51.072;6.678;2022-09-09T16:13:35;18.40;92.90
3001;DHT22;1510;51.072;6.678;2022-09-09T16:16:02;18.20;95.20
3001;DHT22;1510;51.072;6.678;2022-09-09T16:18:34;18.00;98.70
3001;DHT22;1510;51.072;6.678;2022-09-09T16:21:01;17.80;99.60
3001;DHT22;1510;51.072;6.678;2022-09-09T16:23:27;17.70;99.90
3001;DHT22;1510;51.072;6.678;2022-09-09T16:25:56;17.60;99.90
3001;DHT22;1510;51.072;6.678;2022-09-09T16:28:23;17.40;99.90
3001;DHT22;1510;51.072;6.678;2022-09-09T16:30:49;17.50;99.90